createdAt,value
2019-03-08T00:02:17.196Z,98941.73
2019-03-08T00:04:43.100Z,98930.72
2019-03-08T00:07:09.194Z,98936.41
2019-03-08T00:09:35.041Z,98929.56
2019-03-08T00:12:00.923Z,98927.87
2019-03-08T00:14:27.157Z,98927.01
2019-03-08T00:16:53.032Z,98924.01
2019-03-08T00:19:18.912Z,98927.45
2019-03-08T00:21:44.931Z,98908.73
2019-03-08T00:24:10.887Z,98918.77
2019-03-08T00:26:36.756Z,98911.80
2019-03-08T00:29:03.202Z,98911.87
2019-03-08T00:31:29.283Z,98906.19
2019-03-08T00:33:55.123Z,98907.88
2019-03-08T00:36:21.264Z,98898.25
2019-03-08T00:38:47.144Z,98898.33
2019-03-08T00:41:12.986Z,98889.60
2019-03-08T00:43:38.980Z,98892.30
2019-03-08T00:46:04.948Z,98877.05
2019-03-08T00:48:30.904Z,98882.30
2019-03-08T00:50:57.210Z,98878.03
2019-03-08T00:53:23.165Z,98876.27
2019-03-08T00:55:49.137Z,98876.64
2019-03-08T00:58:15.172Z,98865.71
2019-03-08T01:00:41.143Z,98860.92
2019-03-08T01:03:07.105Z,98859.61
2019-03-08T01:05:33.159Z,98852.53
2019-03-08T01:07:59.031Z,98853.77
2019-03-08T01:10:25.289Z,98848.91
2019-03-08T01:12:51.334Z,98840.59
2019-03-08T01:15:17.514Z,98837.52
2019-03-08T01:17:43.384Z,98833.09
2019-03-08T01:20:10.925Z,98827.03
2019-03-08T01:22:36.905Z,98820.48
2019-03-08T01:25:04.048Z,98806.52
2019-03-08T01:27:30.138Z,98804.42
2019-03-08T01:29:56.025Z,98813.14
2019-03-08T01:32:22.078Z,98810.15
2019-03-08T01:34:48.189Z,98797.42
2019-03-08T01:37:14.179Z,98782.63
2019-03-08T01:39:40.151Z,98791.24
2019-03-08T01:42:06.103Z,98774.20
2019-03-08T01:44:33.842Z,98777.69
2019-03-08T01:46:59.678Z,98775.44
2019-03-08T01:49:25.774Z,98767.98
2019-03-08T01:51:51.675Z,98768.28
2019-03-08T01:54:17.530Z,98763.56
2019-03-08T01:56:43.566Z,98758.73
2019-03-08T01:59:09.537Z,98760.41
2019-03-08T02:01:35.511Z,98753.00
2019-03-08T02:04:01.606Z,98752.03
2019-03-08T02:06:27.589Z,98752.40
2019-03-08T02:08:53.450Z,98742.28
2019-03-08T02:11:19.520Z,98746.62
2019-03-08T02:13:45.421Z,98741.38
2019-03-08T02:16:11.273Z,98734.42
2019-03-08T02:18:37.239Z,98727.87
2019-03-08T02:21:07.233Z,98722.63
2019-03-08T02:23:30.866Z,98722.02
2019-03-08T02:25:56.815Z,98716.33
2019-03-08T02:28:22.692Z,98714.53
2019-03-08T02:30:48.575Z,98712.69
2019-03-08T02:33:14.611Z,98699.58
2019-03-08T02:35:40.583Z,98706.51
2019-03-08T02:38:06.426Z,98692.86
2019-03-08T02:40:33.268Z,98692.33
2019-03-08T02:42:59.748Z,98683.91
2019-03-08T02:45:25.847Z,98685.78
2019-03-08T02:47:52.074Z,98677.59
2019-03-08T02:50:18.076Z,98675.91
2019-03-08T02:52:44.059Z,98640.41
2019-03-08T02:55:10.047Z,98668.04
2019-03-08T02:57:35.910Z,98664.56
2019-03-08T03:00:03.986Z,98661.56
2019-03-08T03:02:30.017Z,98664.56
2019-03-08T03:04:55.886Z,98657.18
2019-03-08T03:07:21.748Z,98648.91
2019-03-08T03:09:47.784Z,98647.69
2019-03-08T03:12:13.679Z,98651.53
2019-03-08T03:14:39.551Z,98644.98
2019-03-08T03:17:05.574Z,98644.98
2019-03-08T03:19:31.468Z,98642.44
2019-03-08T03:21:57.351Z,98632.03
2019-03-08T03:24:23.708Z,98632.52
2019-03-08T03:26:49.809Z,98629.41
2019-03-08T03:29:15.750Z,98617.53
2019-03-08T03:31:41.692Z,98620.08
2019-03-08T03:34:07.698Z,98608.20
2019-03-08T03:36:33.561Z,98606.52
2019-03-08T03:38:59.637Z,98600.41
2019-03-08T03:41:25.478Z,98597.87
2019-03-08T03:43:51.326Z,98591.89
2019-03-08T03:46:17.371Z,98590.50
2019-03-08T03:48:43.226Z,98586.64
2019-03-08T03:51:09.080Z,98588.49
2019-03-08T03:53:35.162Z,98580.63
2019-03-08T03:56:01.294Z,98583.70
2019-03-08T03:58:27.198Z,98574.45
2019-03-08T04:00:53.503Z,98579.61
2019-03-08T04:03:19.370Z,98574.28
2019-03-08T04:05:45.331Z,98574.28
2019-03-08T04:08:11.344Z,98568.13
2019-03-08T04:10:37.297Z,98561.01
2019-03-08T04:13:03.198Z,98568.63
2019-03-08T04:15:29.357Z,98558.91
2019-03-08T04:17:55.316Z,98559.20
2019-03-08T04:20:21.292Z,98547.80
2019-03-08T04:22:47.623Z,98550.80
2019-03-08T04:25:13.575Z,98554.56
2019-03-08T04:27:39.534Z,98545.78
2019-03-08T04:30:07.511Z,98543.16
2019-03-08T04:32:33.666Z,98545.70
2019-03-08T04:34:59.661Z,98536.53
2019-03-08T04:37:25.611Z,98530.05
2019-03-08T04:39:51.500Z,98525.35
2019-03-08T04:42:17.449Z,98526.49
2019-03-08T04:44:43.489Z,98525.63
2019-03-08T04:47:09.360Z,98521.70
2019-03-08T04:49:35.219Z,98515.55
2019-03-08T04:52:01.653Z,98515.47
2019-03-08T04:54:27.555Z,98508.91
2019-03-08T04:56:53.417Z,98504.89
2019-03-08T04:59:19.378Z,98503.09
2019-03-08T05:01:45.370Z,98501.33
2019-03-08T05:04:11.350Z,98496.08
2019-03-08T05:06:37.480Z,98489.98
2019-03-08T05:09:04.042Z,98454.93
2019-03-08T05:11:30.011Z,98487.27
2019-03-08T05:13:56.048Z,98482.88
2019-03-08T05:16:21.962Z,98478.86
2019-03-08T05:18:47.803Z,98470.99
2019-03-08T05:21:13.746Z,98468.45
2019-03-08T05:23:39.634Z,98462.84
2019-03-08T05:26:05.475Z,98462.84
2019-03-08T05:28:31.419Z,98462.36
2019-03-08T05:30:57.466Z,98464.98
2019-03-08T05:33:23.338Z,98455.89
2019-03-08T05:35:49.560Z,98449.05
2019-03-08T05:38:15.437Z,98451.31
2019-03-08T05:40:41.296Z,98456.06
2019-03-08T05:43:07.380Z,98440.81
2019-03-08T05:45:33.251Z,98438.11
2019-03-08T05:47:59.208Z,98432.38
2019-03-08T05:50:25.163Z,98427.05
2019-03-08T05:52:51.142Z,98423.20
2019-03-08T05:55:17.107Z,98425.00
2019-03-08T05:57:43.085Z,98413.94
2019-03-08T06:00:10.834Z,98418.27
2019-03-08T06:02:36.771Z,98411.89
2019-03-08T06:05:03.256Z,98408.05
2019-03-08T06:07:29.212Z,98406.73
2019-03-08T06:09:55.172Z,98401.40
2019-03-08T06:12:21.186Z,98394.84
2019-03-08T06:14:47.267Z,98394.93
2019-03-08T06:17:13.197Z,98390.52
2019-03-08T06:19:39.152Z,98378.71
2019-03-08T06:22:04.995Z,98377.41
2019-03-08T06:24:31.011Z,98377.13
2019-03-08T06:26:57.065Z,98368.89
2019-03-08T06:29:23.113Z,98365.87
2019-03-08T06:31:48.994Z,98364.19
2019-03-08T06:34:14.932Z,98359.71
2019-03-08T06:36:40.806Z,98361.76
2019-03-08T06:39:06.857Z,98351.18
2019-03-08T06:41:32.831Z,98346.52
2019-03-08T06:43:58.691Z,98353.06
2019-03-08T06:46:24.552Z,98347.42
2019-03-08T06:48:50.794Z,98351.76
2019-03-08T06:51:16.620Z,98340.88
2019-03-08T06:53:42.575Z,98345.30
2019-03-08T06:56:08.525Z,98343.49
2019-03-08T06:58:39.355Z,98345.66
2019-03-08T07:01:06.639Z,98347.73
2019-03-08T07:03:32.659Z,98340.60
2019-03-08T07:05:58.497Z,98337.44
2019-03-08T07:08:24.550Z,98336.49
2019-03-08T07:10:51.928Z,98336.41
2019-03-08T07:13:17.904Z,98335.00
2019-03-08T07:15:43.847Z,98338.56
2019-03-08T07:18:12.976Z,98336.31
2019-03-08T07:20:41.946Z,98327.98
2019-03-08T07:23:27.327Z,98319.17
2019-03-08T07:25:54.350Z,98318.63
2019-03-08T07:28:23.763Z,98312.07
2019-03-08T07:31:09.436Z,98310.67
2019-03-08T07:33:40.238Z,98301.13
2019-03-08T07:36:26.071Z,98297.09
2019-03-08T07:38:59.724Z,98291.37
2019-03-08T07:41:30.353Z,98286.13
2019-03-08T07:44:04.556Z,98283.89
2019-03-08T07:46:32.412Z,98279.56
2019-03-08T07:49:06.184Z,98274.50
2019-03-08T07:51:36.551Z,98263.65
2019-03-08T07:54:10.160Z,98275.81
2019-03-08T07:56:40.834Z,98270.48
2019-03-08T07:59:08.588Z,98272.28
2019-03-08T08:01:36.520Z,98267.49
2019-03-08T08:04:06.927Z,98264.96
2019-03-08T08:06:37.814Z,98262.34
2019-03-08T08:09:06.694Z,98262.70
2019-03-08T08:11:51.081Z,98261.20
2019-03-08T08:14:27.533Z,98257.94
2019-03-08T08:16:55.546Z,98259.92
2019-03-08T08:19:26.171Z,98250.74
2019-03-08T08:22:00.415Z,98247.08
2019-03-08T08:24:39.944Z,98241.73
2019-03-08T08:27:08.066Z,98243.05
2019-03-08T08:29:41.445Z,98237.90
2019-03-08T08:32:12.241Z,98237.44
2019-03-08T08:34:42.620Z,98240.06
2019-03-08T08:37:13.484Z,98234.33
2019-03-08T08:39:47.268Z,98233.88
2019-03-08T08:42:24.235Z,98236.40
2019-03-08T08:44:57.973Z,98232.37
2019-03-08T08:47:31.644Z,98232.92
2019-03-08T08:50:14.154Z,98232.66
2019-03-08T08:52:47.713Z,98230.89
2019-03-08T08:55:18.259Z,98226.37
2019-03-08T08:57:46.236Z,98219.26
2019-03-08T09:00:15.994Z,98223.95
2019-03-08T09:02:46.625Z,98218.80
2019-03-08T09:05:20.368Z,98220.38
2019-03-08T09:07:50.804Z,98222.91
2019-03-08T09:10:34.961Z,98221.90
2019-03-08T09:13:08.971Z,98213.54
2019-03-08T09:15:37.012Z,98211.67
2019-03-08T09:18:04.845Z,98198.00
2019-03-08T09:20:32.598Z,98205.59
2019-03-08T09:23:15.486Z,98206.80
2019-03-08T09:25:43.314Z,98196.22
2019-03-08T09:28:11.084Z,98195.63
2019-03-08T09:30:39.120Z,98188.61
2019-03-08T09:33:24.932Z,98189.66
2019-03-08T09:35:58.509Z,98194.80
2019-03-08T09:38:32.010Z,98189.46
2019-03-08T09:41:02.760Z,98197.33
2019-03-08T09:43:42.466Z,98196.94
2019-03-08T09:46:16.291Z,98188.97
2019-03-08T09:48:49.674Z,98190.19
2019-03-08T09:51:17.635Z,98185.03
2019-03-08T09:53:54.128Z,98187.39
2019-03-08T09:56:25.298Z,98186.08
2019-03-08T09:59:11.069Z,98189.73
2019-03-08T10:01:50.984Z,98180.91
2019-03-08T10:04:18.731Z,98189.08
2019-03-08T10:07:01.369Z,98190.75
2019-03-08T10:09:29.142Z,98182.22
2019-03-08T10:12:13.360Z,98185.52
2019-03-08T10:14:57.965Z,98181.39
2019-03-08T10:17:28.764Z,98186.46
2019-03-08T10:19:59.128Z,98180.65
2019-03-08T10:22:26.875Z,98178.87
2019-03-08T10:25:03.776Z,98179.44
2019-03-08T10:27:38.074Z,98178.22
2019-03-08T10:30:01.310Z,98175.14
2019-03-08T10:32:45.723Z,98177.49
2019-03-08T10:35:23.785Z,98176.18
2019-03-08T10:37:49.507Z,98166.14
2019-03-08T10:40:33.902Z,98155.66
2019-03-08T10:43:07.829Z,98163.79
2019-03-08T10:45:36.193Z,98155.82
2019-03-08T10:48:20.418Z,98159.85
2019-03-08T10:50:59.898Z,98157.63
2019-03-08T10:53:36.962Z,98155.92
2019-03-08T10:56:16.744Z,98160.61
2019-03-08T10:58:50.587Z,98165.30
2019-03-08T11:01:34.743Z,98165.30
2019-03-08T11:04:02.694Z,98167.08
2019-03-08T11:06:30.584Z,98166.22
2019-03-08T11:09:00.937Z,98165.49
2019-03-08T11:11:34.726Z,98165.00
2019-03-08T11:14:17.745Z,98158.35
2019-03-08T11:16:45.910Z,98160.97
2019-03-08T11:19:28.487Z,98162.88
2019-03-08T11:21:59.210Z,98160.70
2019-03-08T11:24:35.785Z,98156.31
2019-03-08T11:27:20.068Z,98147.42
2019-03-08T11:29:47.929Z,98151.99
2019-03-08T11:32:22.733Z,98151.74
2019-03-08T11:35:02.369Z,98154.16
2019-03-08T11:37:30.227Z,98155.75
2019-03-08T11:40:00.627Z,98159.78
2019-03-08T11:42:30.107Z,98163.80
2019-03-08T11:45:00.885Z,98158.57
2019-03-08T11:47:28.862Z,98150.23
2019-03-08T11:50:12.953Z,98149.86
2019-03-08T11:52:57.026Z,98150.50
2019-03-08T11:55:39.888Z,98143.38
2019-03-08T11:58:13.278Z,98147.68
2019-03-08T12:00:44.226Z,98155.09
2019-03-08T12:03:28.891Z,98145.80
2019-03-08T12:06:13.367Z,98143.45
2019-03-08T12:08:46.874Z,98147.20
2019-03-08T12:11:31.541Z,98152.62
2019-03-08T12:14:11.002Z,98151.86
2019-03-08T12:16:47.816Z,98149.42
2019-03-08T12:19:30.361Z,98154.75
2019-03-08T12:22:01.069Z,98151.45
2019-03-08T12:24:40.608Z,98155.47
2019-03-08T12:27:17.468Z,98155.42
2019-03-08T12:29:45.243Z,98152.71
2019-03-08T12:32:15.902Z,98160.55
2019-03-08T12:34:58.611Z,98162.58
2019-03-08T12:37:29.183Z,98163.61
2019-03-08T12:39:56.943Z,98161.98
2019-03-08T12:42:27.713Z,98157.47
2019-03-08T12:45:12.104Z,98160.09
2019-03-08T12:47:42.971Z,98165.23
2019-03-08T12:50:19.667Z,98164.78
2019-03-08T12:52:59.526Z,98162.34
2019-03-08T12:55:33.222Z,98165.39
2019-03-08T12:58:01.129Z,98164.69
2019-03-08T13:00:47.037Z,98157.81
2019-03-08T13:03:20.828Z,98163.02
2019-03-08T13:05:48.716Z,98164.86
2019-03-08T13:08:16.487Z,98163.02
2019-03-08T13:10:42.515Z,98169.92
2019-03-08T13:13:08.396Z,98155.71
2019-03-08T13:15:34.252Z,98164.27
2019-03-08T13:18:00.284Z,98163.53
2019-03-08T13:20:26.194Z,98165.38
2019-03-08T13:22:52.056Z,98159.86
2019-03-08T13:25:18.299Z,98168.95
2019-03-08T13:27:44.156Z,98170.13
2019-03-08T13:30:11.741Z,98162.05
2019-03-08T13:32:37.686Z,98174.55
2019-03-08T13:35:05.479Z,98161.90
2019-03-08T13:37:31.318Z,98161.75
2019-03-08T13:39:57.300Z,98161.91
2019-03-08T13:42:23.285Z,98159.70
2019-03-08T13:44:49.136Z,98161.83
2019-03-08T13:47:15.284Z,98165.09
2019-03-08T13:49:41.445Z,98157.33
2019-03-08T13:52:07.296Z,98159.09
2019-03-08T13:54:33.317Z,98160.08
2019-03-08T13:56:59.200Z,98161.55
2019-03-08T13:59:25.067Z,98156.03
2019-03-08T14:01:51.527Z,98165.79
2019-03-08T14:04:17.495Z,98154.36
2019-03-08T14:06:43.368Z,98156.23
2019-03-08T14:09:09.483Z,98151.98
2019-03-08T14:11:35.342Z,98162.06
2019-03-08T14:14:01.219Z,98173.69
2019-03-08T14:16:27.348Z,98159.86
2019-03-08T14:18:53.192Z,98168.30
2019-03-08T14:21:19.348Z,98163.77
2019-03-08T14:23:45.322Z,98169.31
2019-03-08T14:26:11.294Z,98171.70
2019-03-08T14:28:37.145Z,98163.87
2019-03-08T14:31:14.043Z,98166.03
2019-03-08T14:33:39.896Z,98163.87
2019-03-08T14:36:06.249Z,98169.55
2019-03-08T14:38:36.540Z,98174.48
2019-03-08T14:41:16.197Z,98169.33
2019-03-08T14:43:48.967Z,98171.95
2019-03-08T14:46:25.333Z,98172.47
2019-03-08T14:48:51.366Z,98178.17
2019-03-08T14:51:17.269Z,98169.04
2019-03-08T14:53:43.120Z,98169.41
2019-03-08T14:56:09.300Z,98175.56
2019-03-08T14:58:36.802Z,98172.26
2019-03-08T15:01:06.192Z,98176.41
2019-03-08T15:03:30.779Z,98179.09
2019-03-08T15:05:56.637Z,98189.98
2019-03-08T15:08:22.474Z,98194.84
2019-03-08T15:10:51.267Z,98198.42
2019-03-08T15:13:16.195Z,98195.44
2019-03-08T15:15:42.149Z,98198.28
2019-03-08T15:18:08.229Z,98201.98
2019-03-08T15:20:34.187Z,98200.34
2019-03-08T15:23:00.114Z,98199.75
2019-03-08T15:25:26.187Z,98202.95
2019-03-08T15:27:52.150Z,98199.49
2019-03-08T15:30:18.407Z,98200.05
2019-03-08T15:32:45.206Z,98208.41
2019-03-08T15:35:12.157Z,98213.36
2019-03-08T15:37:44.145Z,98206.61
2019-03-08T15:40:10.110Z,98209.37
2019-03-08T15:42:36.854Z,98213.36
2019-03-08T15:45:05.778Z,98214.36
2019-03-08T15:47:35.993Z,98211.42
2019-03-08T15:50:00.550Z,98214.73
2019-03-08T15:52:26.499Z,98219.55
2019-03-08T15:54:52.550Z,98215.25
2019-03-08T15:57:18.386Z,98223.61
2019-03-08T15:59:44.260Z,98218.53
2019-03-08T16:02:10.325Z,98217.30
2019-03-08T16:04:38.708Z,98215.17
2019-03-08T16:07:04.769Z,98214.06
2019-03-08T16:09:30.886Z,98223.73
2019-03-08T16:11:56.869Z,98217.29
2019-03-08T16:14:22.744Z,98227.39
2019-03-08T16:16:48.858Z,98223.17
2019-03-08T16:19:14.700Z,98228.83
2019-03-08T16:21:40.581Z,98223.83
2019-03-08T16:24:06.634Z,98221.64
2019-03-08T16:26:32.499Z,98229.53
2019-03-08T16:28:58.413Z,98225.69
2019-03-08T16:31:26.663Z,98226.20
2019-03-08T16:33:54.453Z,98228.52
2019-03-08T16:36:22.309Z,98236.70
2019-03-08T16:39:06.678Z,98231.56
2019-03-08T16:41:37.116Z,98229.81
2019-03-08T16:44:17.065Z,98225.56
2019-03-08T16:46:47.831Z,98229.62
2019-03-08T16:49:18.879Z,98234.08
2019-03-08T16:51:54.055Z,98229.91
2019-03-08T16:54:30.599Z,98230.48
2019-03-08T16:57:15.005Z,98228.88
2019-03-08T16:59:42.754Z,98230.63
2019-03-08T17:02:10.538Z,98227.79
2019-03-08T17:04:47.288Z,98230.84
2019-03-08T17:07:26.789Z,98224.87
2019-03-08T17:10:00.570Z,98229.75
2019-03-08T17:12:28.410Z,98228.45
2019-03-08T17:15:22.788Z,98229.44
2019-03-08T17:17:59.336Z,98240.45
2019-03-08T17:20:33.273Z,98239.35
2019-03-08T17:23:17.296Z,98234.86
2019-03-08T17:25:51.338Z,98232.87
2019-03-08T17:28:25.049Z,98243.80
2019-03-08T17:31:07.741Z,98238.42
2019-03-08T17:33:38.177Z,98241.98
2019-03-08T17:36:17.867Z,98240.75
2019-03-08T17:38:48.853Z,98238.28
2019-03-08T17:41:24.077Z,98245.34
2019-03-08T17:43:57.582Z,98242.80
2019-03-08T17:46:31.456Z,98240.77
2019-03-08T17:49:01.990Z,98250.41
2019-03-08T17:51:29.761Z,98246.56
2019-03-08T17:54:15.648Z,98254.88
2019-03-08T17:56:59.749Z,98246.38
2019-03-08T17:59:36.676Z,98252.95
2019-03-08T18:02:07.284Z,98246.52
2019-03-08T18:04:35.028Z,98259.91
2019-03-08T18:07:03.208Z,98253.47
2019-03-08T18:09:30.952Z,98256.99
2019-03-08T18:12:02.022Z,98258.94
2019-03-08T18:14:32.408Z,98266.88
2019-03-08T18:17:06.066Z,98260.56
2019-03-08T18:19:50.560Z,98259.39
2019-03-08T18:22:18.324Z,98259.90
2019-03-08T18:24:58.329Z,98265.97
2019-03-08T18:27:37.950Z,98268.25
2019-03-08T18:30:13.770Z,98263.11
2019-03-08T18:32:47.136Z,98264.41
2019-03-08T18:35:23.991Z,98264.98
2019-03-08T18:37:51.721Z,98262.89
2019-03-08T18:40:19.592Z,98264.63
2019-03-08T18:42:47.540Z,98220.73
2019-03-08T18:45:31.622Z,98266.13
2019-03-08T18:48:14.430Z,98262.83
2019-03-08T18:50:44.819Z,98262.41
2019-03-08T18:53:12.608Z,98262.54
2019-03-08T18:55:52.371Z,98261.78
2019-03-08T18:58:32.403Z,98261.84
2019-03-08T19:01:15.346Z,98264.51
2019-03-08T19:03:45.970Z,98269.23
2019-03-08T19:06:22.728Z,98268.79
2019-03-08T19:09:06.773Z,98261.49
2019-03-08T19:11:37.508Z,98269.30
2019-03-08T19:14:11.142Z,98272.81
2019-03-08T19:16:39.059Z,98275.10
2019-03-08T19:19:06.912Z,98275.98
2019-03-08T19:21:46.512Z,98277.83
2019-03-08T19:24:26.094Z,98279.25
2019-03-08T19:27:12.051Z,98279.75
2019-03-08T19:29:58.052Z,98231.40
2019-03-08T19:32:26.006Z,98277.22
2019-03-08T19:34:53.771Z,98282.12
2019-03-08T19:37:21.539Z,98275.69
2019-03-08T19:39:55.288Z,98282.31
2019-03-08T19:42:25.713Z,98286.22
2019-03-08T19:45:05.754Z,98284.91
2019-03-08T19:47:33.533Z,98281.55
2019-03-08T19:50:16.523Z,98283.29
2019-03-08T19:52:46.915Z,98286.39
2019-03-08T19:55:14.664Z,98284.84
2019-03-08T19:57:57.640Z,98283.59
2019-03-08T20:00:28.009Z,98282.67
2019-03-08T20:03:13.573Z,98279.70
2019-03-08T20:05:43.946Z,98279.63
2019-03-08T20:08:26.961Z,98283.15
2019-03-08T20:11:06.528Z,98287.17
2019-03-08T20:13:34.494Z,98289.77
2019-03-08T20:16:18.498Z,98285.08
2019-03-08T20:18:49.222Z,98292.44
2019-03-08T20:21:19.878Z,98290.27
2019-03-08T20:23:47.738Z,98250.64
2019-03-08T20:26:32.424Z,98293.44
2019-03-08T20:29:08.884Z,98297.34
2019-03-08T20:31:36.917Z,98293.97
2019-03-08T20:34:04.785Z,98289.66
2019-03-08T20:36:32.541Z,98289.59
2019-03-08T20:39:17.007Z,98281.91
2019-03-08T20:41:53.606Z,98279.82
2019-03-08T20:44:39.792Z,98290.69
2019-03-08T20:47:07.652Z,98283.39
2019-03-08T20:49:33.516Z,98285.20
2019-03-08T20:51:59.658Z,98285.20
2019-03-08T20:54:25.598Z,98283.89
2019-03-08T20:56:51.675Z,98281.83
2019-03-08T20:59:17.900Z,98288.77
2019-03-08T21:01:43.833Z,98293.97
2019-03-08T21:04:09.690Z,98300.03
2019-03-08T21:06:35.787Z,98299.67
2019-03-08T21:09:01.736Z,98305.34
2019-03-08T21:11:27.588Z,98301.56
2019-03-08T21:13:53.824Z,98301.62
2019-03-08T21:16:19.702Z,98293.02
2019-03-08T21:18:45.562Z,98303.42
2019-03-08T21:21:11.635Z,98294.38
2019-03-08T21:23:37.492Z,98294.77
2019-03-08T21:26:03.444Z,98298.60
2019-03-08T21:28:29.499Z,98296.92
2019-03-08T21:30:57.370Z,98300.82
2019-03-08T21:33:23.230Z,98311.21
2019-03-08T21:35:49.254Z,98312.57
2019-03-08T21:38:15.086Z,98310.89
2019-03-08T21:40:40.967Z,98314.43
2019-03-08T21:43:07.084Z,98316.64
2019-03-08T21:45:33.315Z,98322.34
2019-03-08T21:47:59.154Z,98314.16
2019-03-08T21:50:25.217Z,98322.95
2019-03-08T21:52:51.084Z,98328.67
2019-03-08T21:55:16.959Z,98330.97
2019-03-08T21:57:43.097Z,98328.48
2019-03-08T22:00:16.245Z,98326.48
2019-03-08T22:02:42.312Z,98325.23
2019-03-08T22:05:08.436Z,98327.41
2019-03-08T22:07:34.305Z,98327.47
2019-03-08T22:10:04.719Z,98331.84
2019-03-08T22:12:30.752Z,98330.13
2019-03-08T22:14:56.728Z,98325.52
2019-03-08T22:17:23.095Z,98333.75
2019-03-08T22:19:49.294Z,98329.96
2019-03-08T22:22:15.150Z,98330.51
2019-03-08T22:24:41.031Z,98341.37
2019-03-08T22:27:07.160Z,98333.66
2019-03-08T22:29:33.018Z,98342.74
2019-03-08T22:31:58.924Z,98333.81
2019-03-08T22:34:25.078Z,98333.92
2019-03-08T22:36:50.924Z,98331.00
2019-03-08T22:39:16.774Z,98337.98
2019-03-08T22:41:42.782Z,98334.56
2019-03-08T22:44:08.649Z,98332.90
2019-03-08T22:46:34.549Z,98329.48
2019-03-08T22:49:00.642Z,98336.80
2019-03-08T22:51:26.715Z,98329.53
2019-03-08T22:53:52.584Z,98332.56
2019-03-08T22:56:18.528Z,98329.97
2019-03-08T22:58:44.380Z,98336.52
2019-03-08T23:01:12.179Z,98335.27
2019-03-08T23:03:38.594Z,98336.57
2019-03-08T23:06:04.520Z,98340.52
2019-03-08T23:08:30.803Z,98344.47
2019-03-08T23:10:56.912Z,98344.19
2019-03-08T23:13:22.860Z,98333.92
2019-03-08T23:15:48.883Z,98339.64
2019-03-08T23:18:15.964Z,98339.75
2019-03-08T23:20:41.892Z,98335.44
2019-03-08T23:23:07.771Z,98339.80
2019-03-08T23:25:33.796Z,98344.12
2019-03-08T23:28:04.439Z,98349.38
2019-03-08T23:30:30.323Z,98343.84
2019-03-08T23:32:56.464Z,98342.08
2019-03-08T23:35:22.302Z,98352.07
2019-03-08T23:37:48.213Z,98354.33
2019-03-08T23:40:14.336Z,98360.87
2019-03-08T23:42:40.177Z,98355.31
2019-03-08T23:45:07.156Z,98348.48
2019-03-08T23:47:33.690Z,98347.69
2019-03-08T23:49:59.556Z,98350.85
2019-03-08T23:52:25.402Z,98350.90
2019-03-08T23:54:51.448Z,98355.33
2019-03-08T23:57:17.327Z,98360.20
2019-03-08T23:59:43.255Z,98357.70
